sensor_id;sensor_type;location;lat;lon;timestamp;P1;durP1;ratioP1;P2;durP2;ratioP2
43337;SDS011;28933;52.492;13.434;2022-11-12T00:00:32;15.02;;;7.95;;
43337;SDS011;28933;52.492;13.434;2022-11-12T00:02:58;13.30;;;8.18;;
43337;SDS011;28933;52.492;13.434;2022-11-12T00:05:24;11.38;;;7.32;;
43337;SDS011;28933;52.492;13.434;2022-11-12T00:07:50;15.05;;;8.07;;
43337;SDS011;28933;52.492;13.434;2022-11-12T00:10:16;11.25;;;7.70;;
43337;SDS011;28933;52.492;13.434;2022-11-12T00:12:42;16.33;;;7.35;;
43337;SDS011;28933;52.492;13.434;2022-11-12T00:15:08;14.02;;;6.95;;
43337;SDS011;28933;52.492;13.434;2022-11-12T00:17:35;13.63;;;6.90;;
43337;SDS011;28933;52.492;13.434;2022-11-12T00:20:01;10.88;;;6.78;;
43337;SDS011;28933;52.492;13.434;2022-11-12T00:22:27;9.90;;;6.82;;
43337;SDS011;28933;52.492;13.434;2022-11-12T00:24:52;10.95;;;6.57;;
43337;SDS011;28933;52.492;13.434;2022-11-12T00:27:18;10.50;;;5.95;;
43337;SDS011;28933;52.492;13.434;2022-11-12T00:29:44;10.82;;;6.57;;
43337;SDS011;28933;52.492;13.434;2022-11-12T00:32:10;11.02;;;7.03;;
43337;SDS011;28933;52.492;13.434;2022-11-12T00:34:36;11.63;;;6.90;;
43337;SDS011;28933;52.492;13.434;2022-11-12T00:37:02;9.13;;;6.32;;
43337;SDS011;28933;52.492;13.434;2022-11-12T00:39:28;12.10;;;7.63;;
43337;SDS011;28933;52.492;13.434;2022-11-12T00:41:54;11.10;;;6.15;;
43337;SDS011;28933;52.492;13.434;2022-11-12T00:44:20;10.95;;;7.25;;
43337;SDS011;28933;52.492;13.434;2022-11-12T00:46:46;11.45;;;7.47;;
43337;SDS011;28933;52.492;13.434;2022-11-12T00:49:13;12.90;;;7.20;;
43337;SDS011;28933;52.492;13.434;2022-11-12T00:51:39;10.07;;;6.07;;
43337;SDS011;28933;52.492;13.434;2022-11-12T00:54:06;11.95;;;6.75;;
43337;SDS011;28933;52.492;13.434;2022-11-12T00:56:32;9.52;;;6.45;;
43337;SDS011;28933;52.492;13.434;2022-11-12T00:58:58;11.77;;;7.22;;
43337;SDS011;28933;52.492;13.434;2022-11-12T01:01:24;13.02;;;7.25;;
43337;SDS011;28933;52.492;13.434;2022-11-12T01:03:52;10.57;;;7.07;;
43337;SDS011;28933;52.492;13.434;2022-11-12T01:06:19;10.82;;;7.22;;
43337;SDS011;28933;52.492;13.434;2022-11-12T01:08:46;12.10;;;7.43;;
43337;SDS011;28933;52.492;13.434;2022-11-12T01:11:17;11.82;;;6.68;;
43337;SDS011;28933;52.492;13.434;2022-11-12T01:13:45;9.82;;;6.95;;
43337;SDS011;28933;52.492;13.434;2022-11-12T01:16:13;12.07;;;7.30;;
43337;SDS011;28933;52.492;13.434;2022-11-12T01:18:41;9.50;;;6.25;;
43337;SDS011;28933;52.492;13.434;2022-11-12T01:21:11;9.68;;;6.63;;
43337;SDS011;28933;52.492;13.434;2022-11-12T01:23:37;11.70;;;6.45;;
43337;SDS011;28933;52.492;13.434;2022-11-12T01:26:05;9.43;;;6.28;;
43337;SDS011;28933;52.492;13.434;2022-11-12T01:28:36;9.43;;;6.43;;
43337;SDS011;28933;52.492;13.434;2022-11-12T01:31:09;13.02;;;6.82;;
43337;SDS011;28933;52.492;13.434;2022-11-12T01:33:39;12.85;;;6.82;;
43337;SDS011;28933;52.492;13.434;2022-11-12T01:36:05;9.70;;;5.68;;
43337;SDS011;28933;52.492;13.434;2022-11-12T01:38:35;12.00;;;6.47;;
43337;SDS011;28933;52.492;13.434;2022-11-12T01:41:02;10.00;;;6.50;;
43337;SDS011;28933;52.492;13.434;2022-11-12T01:43:28;10.70;;;6.47;;
43337;SDS011;28933;52.492;13.434;2022-11-12T01:45:54;10.65;;;6.63;;
43337;SDS011;28933;52.492;13.434;2022-11-12T01:48:34;11.13;;;6.38;;
43337;SDS011;28933;52.492;13.434;2022-11-12T01:51:05;11.38;;;6.68;;
43337;SDS011;28933;52.492;13.434;2022-11-12T01:53:44;10.52;;;6.65;;
43337;SDS011;28933;52.492;13.434;2022-11-12T01:56:15;9.43;;;5.88;;
43337;SDS011;28933;52.492;13.434;2022-11-12T01:58:42;7.65;;;5.55;;
43337;SDS011;28933;52.492;13.434;2022-11-12T02:01:14;11.70;;;6.15;;
43337;SDS011;28933;52.492;13.434;2022-11-12T02:03:40;9.20;;;6.07;;
43337;SDS011;28933;52.492;13.434;2022-11-12T02:06:07;8.90;;;5.75;;
43337;SDS011;28933;52.492;13.434;2022-11-12T02:08:35;8.32;;;5.43;;
43337;SDS011;28933;52.492;13.434;2022-11-12T02:11:12;9.25;;;5.68;;
43337;SDS011;28933;52.492;13.434;2022-11-12T02:13:41;8.13;;;5.72;;
43337;SDS011;28933;52.492;13.434;2022-11-12T02:16:30;7.22;;;4.57;;
43337;SDS011;28933;52.492;13.434;2022-11-12T02:19:03;7.95;;;5.22;;
43337;SDS011;28933;52.492;13.434;2022-11-12T02:21:31;9.65;;;5.25;;
43337;SDS011;28933;52.492;13.434;2022-11-12T02:26:25;9.40;;;5.78;;
43337;SDS011;28933;52.492;13.434;2022-11-12T02:28:54;9.52;;;4.72;;
43337;SDS011;28933;52.492;13.434;2022-11-12T02:31:19;7.05;;;4.55;;
43337;SDS011;28933;52.492;13.434;2022-11-12T02:33:45;8.32;;;5.65;;
43337;SDS011;28933;52.492;13.434;2022-11-12T02:36:10;9.88;;;5.03;;
43337;SDS011;28933;52.492;13.434;2022-11-12T02:38:36;9.75;;;5.05;;
43337;SDS011;28933;52.492;13.434;2022-11-12T02:41:02;9.07;;;5.15;;
43337;SDS011;28933;52.492;13.434;2022-11-12T02:43:28;7.25;;;4.63;;
43337;SDS011;28933;52.492;13.434;2022-11-12T02:45:53;7.85;;;5.30;;
43337;SDS011;28933;52.492;13.434;2022-11-12T02:48:19;7.13;;;4.20;;
43337;SDS011;28933;52.492;13.434;2022-11-12T02:50:46;8.50;;;5.18;;
43337;SDS011;28933;52.492;13.434;2022-11-12T02:53:12;7.03;;;4.30;;
43337;SDS011;28933;52.492;13.434;2022-11-12T02:55:37;6.47;;;4.70;;
43337;SDS011;28933;52.492;13.434;2022-11-12T02:58:03;6.30;;;4.53;;
43337;SDS011;28933;52.492;13.434;2022-11-12T03:00:29;8.15;;;4.65;;
43337;SDS011;28933;52.492;13.434;2022-11-12T03:02:55;6.80;;;4.30;;
43337;SDS011;28933;52.492;13.434;2022-11-12T03:05:25;8.20;;;4.63;;
43337;SDS011;28933;52.492;13.434;2022-11-12T03:07:56;6.03;;;4.00;;
43337;SDS011;28933;52.492;13.434;2022-11-12T03:10:24;6.97;;;4.35;;
43337;SDS011;28933;52.492;13.434;2022-11-12T03:12:50;6.65;;;4.18;;
43337;SDS011;28933;52.492;13.434;2022-11-12T03:15:16;6.70;;;4.40;;
43337;SDS011;28933;52.492;13.434;2022-11-12T03:17:41;9.80;;;4.50;;
43337;SDS011;28933;52.492;13.434;2022-11-12T03:20:08;8.82;;;4.78;;
43337;SDS011;28933;52.492;13.434;2022-11-12T03:22:35;9.18;;;4.28;;
43337;SDS011;28933;52.492;13.434;2022-11-12T03:25:01;10.40;;;5.10;;
43337;SDS011;28933;52.492;13.434;2022-11-12T03:27:27;7.60;;;4.43;;
43337;SDS011;28933;52.492;13.434;2022-11-12T03:29:52;9.25;;;4.65;;
43337;SDS011;28933;52.492;13.434;2022-11-12T03:32:18;9.25;;;5.55;;
43337;SDS011;28933;52.492;13.434;2022-11-12T03:34:43;10.52;;;4.55;;
43337;SDS011;28933;52.492;13.434;2022-11-12T03:37:09;7.85;;;4.47;;
43337;SDS011;28933;52.492;13.434;2022-11-12T03:39:35;7.68;;;5.35;;
43337;SDS011;28933;52.492;13.434;2022-11-12T03:42:01;6.63;;;4.18;;
43337;SDS011;28933;52.492;13.434;2022-11-12T03:44:27;5.80;;;4.28;;
43337;SDS011;28933;52.492;13.434;2022-11-12T03:46:52;8.20;;;4.25;;
43337;SDS011;28933;52.492;13.434;2022-11-12T03:49:18;7.35;;;4.47;;
43337;SDS011;28933;52.492;13.434;2022-11-12T03:51:43;6.80;;;4.28;;
43337;SDS011;28933;52.492;13.434;2022-11-12T03:54:10;7.43;;;4.93;;
43337;SDS011;28933;52.492;13.434;2022-11-12T03:56:36;5.70;;;3.45;;
43337;SDS011;28933;52.492;13.434;2022-11-12T03:59:03;9.63;;;4.72;;
43337;SDS011;28933;52.492;13.434;2022-11-12T04:01:29;7.97;;;4.47;;
43337;SDS011;28933;52.492;13.434;2022-11-12T04:03:54;6.65;;;4.00;;
43337;SDS011;28933;52.492;13.434;2022-11-12T04:06:20;7.57;;;4.45;;
43337;SDS011;28933;52.492;13.434;2022-11-12T04:09:05;7.03;;;4.40;;
43337;SDS011;28933;52.492;13.434;2022-11-12T04:11:32;6.68;;;4.40;;
43337;SDS011;28933;52.492;13.434;2022-11-12T04:13:57;7.32;;;4.40;;
43337;SDS011;28933;52.492;13.434;2022-11-12T04:16:24;6.88;;;3.47;;
43337;SDS011;28933;52.492;13.434;2022-11-12T04:19:09;7.45;;;4.30;;
43337;SDS011;28933;52.492;13.434;2022-11-12T04:21:57;7.30;;;3.90;;
43337;SDS011;28933;52.492;13.434;2022-11-12T04:24:29;6.25;;;4.07;;
43337;SDS011;28933;52.492;13.434;2022-11-12T04:27:18;6.53;;;4.07;;
43337;SDS011;28933;52.492;13.434;2022-11-12T04:29:46;7.10;;;3.97;;
43337;SDS011;28933;52.492;13.434;2022-11-12T04:32:32;8.35;;;3.70;;
43337;SDS011;28933;52.492;13.434;2022-11-12T04:35:00;6.55;;;3.65;;
43337;SDS011;28933;52.492;13.434;2022-11-12T04:37:27;5.82;;;4.13;;
43337;SDS011;28933;52.492;13.434;2022-11-12T04:40:08;6.10;;;4.30;;
43337;SDS011;28933;52.492;13.434;2022-11-12T04:43:05;7.43;;;4.22;;
43337;SDS011;28933;52.492;13.434;2022-11-12T04:45:52;5.93;;;3.40;;
43337;SDS011;28933;52.492;13.434;2022-11-12T04:48:22;5.15;;;3.58;;
43337;SDS011;28933;52.492;13.434;2022-11-12T04:50:48;5.57;;;3.72;;
43337;SDS011;28933;52.492;13.434;2022-11-12T04:53:19;7.72;;;4.00;;
43337;SDS011;28933;52.492;13.434;2022-11-12T04:55:55;7.18;;;3.85;;
43337;SDS011;28933;52.492;13.434;2022-11-12T04:58:22;6.97;;;4.30;;
43337;SDS011;28933;52.492;13.434;2022-11-12T05:00:48;5.00;;;3.58;;
43337;SDS011;28933;52.492;13.434;2022-11-12T05:03:15;7.03;;;4.05;;
43337;SDS011;28933;52.492;13.434;2022-11-12T05:05:41;6.10;;;3.47;;
43337;SDS011;28933;52.492;13.434;2022-11-12T05:08:07;8.90;;;3.75;;
43337;SDS011;28933;52.492;13.434;2022-11-12T05:10:33;6.13;;;3.67;;
43337;SDS011;28933;52.492;13.434;2022-11-12T05:12:58;7.78;;;3.90;;
43337;SDS011;28933;52.492;13.434;2022-11-12T05:15:24;6.95;;;4.30;;
43337;SDS011;28933;52.492;13.434;2022-11-12T05:17:50;5.60;;;3.95;;
43337;SDS011;28933;52.492;13.434;2022-11-12T05:20:16;7.20;;;3.92;;
43337;SDS011;28933;52.492;13.434;2022-11-12T05:22:42;5.72;;;3.95;;
43337;SDS011;28933;52.492;13.434;2022-11-12T05:25:08;7.28;;;4.80;;
43337;SDS011;28933;52.492;13.434;2022-11-12T05:27:34;6.55;;;4.35;;
43337;SDS011;28933;52.492;13.434;2022-11-12T05:30:00;5.55;;;3.80;;
43337;SDS011;28933;52.492;13.434;2022-11-12T05:32:27;7.82;;;3.88;;
43337;SDS011;28933;52.492;13.434;2022-11-12T05:34:52;6.05;;;3.72;;
43337;SDS011;28933;52.492;13.434;2022-11-12T05:37:18;6.57;;;3.92;;
43337;SDS011;28933;52.492;13.434;2022-11-12T05:39:44;6.95;;;4.45;;
43337;SDS011;28933;52.492;13.434;2022-11-12T05:42:10;7.07;;;3.90;;
43337;SDS011;28933;52.492;13.434;2022-11-12T05:44:35;8.00;;;4.43;;
43337;SDS011;28933;52.492;13.434;2022-11-12T05:47:01;7.55;;;3.88;;
43337;SDS011;28933;52.492;13.434;2022-11-12T05:49:27;8.50;;;4.72;;
43337;SDS011;28933;52.492;13.434;2022-11-12T05:51:53;6.38;;;3.85;;
43337;SDS011;28933;52.492;13.434;2022-11-12T05:54:19;5.68;;;4.05;;
43337;SDS011;28933;52.492;13.434;2022-11-12T05:56:44;7.80;;;4.55;;
43337;SDS011;28933;52.492;13.434;2022-11-12T05:59:11;7.88;;;4.55;;
43337;SDS011;28933;52.492;13.434;2022-11-12T06:01:38;6.97;;;3.92;;
43337;SDS011;28933;52.492;13.434;2022-11-12T06:04:11;6.88;;;4.45;;
43337;SDS011;28933;52.492;13.434;2022-11-12T06:06:39;8.27;;;4.45;;
43337;SDS011;28933;52.492;13.434;2022-11-12T06:09:06;6.13;;;4.22;;
43337;SDS011;28933;52.492;13.434;2022-11-12T06:11:33;8.88;;;5.57;;
43337;SDS011;28933;52.492;13.434;2022-11-12T06:13:59;6.75;;;4.28;;
43337;SDS011;28933;52.492;13.434;2022-11-12T06:16:24;6.28;;;4.15;;
43337;SDS011;28933;52.492;13.434;2022-11-12T06:18:50;8.07;;;4.40;;
43337;SDS011;28933;52.492;13.434;2022-11-12T06:21:16;5.90;;;4.00;;
43337;SDS011;28933;52.492;13.434;2022-11-12T06:23:52;7.13;;;4.35;;
43337;SDS011;28933;52.492;13.434;2022-11-12T06:26:21;6.50;;;4.25;;
43337;SDS011;28933;52.492;13.434;2022-11-12T06:28:47;6.40;;;4.43;;
43337;SDS011;28933;52.492;13.434;2022-11-12T06:31:15;7.00;;;4.53;;
43337;SDS011;28933;52.492;13.434;2022-11-12T06:33:41;7.95;;;4.50;;
43337;SDS011;28933;52.492;13.434;2022-11-12T06:36:09;8.55;;;5.10;;
43337;SDS011;28933;52.492;13.434;2022-11-12T06:38:36;6.60;;;4.78;;
43337;SDS011;28933;52.492;13.434;2022-11-12T06:41:04;6.72;;;4.20;;
43337;SDS011;28933;52.492;13.434;2022-11-12T06:43:30;6.95;;;4.43;;
43337;SDS011;28933;52.492;13.434;2022-11-12T06:45:57;6.85;;;4.15;;
43337;SDS011;28933;52.492;13.434;2022-11-12T06:48:27;7.90;;;4.47;;
43337;SDS011;28933;52.492;13.434;2022-11-12T06:50:53;7.43;;;4.10;;
43337;SDS011;28933;52.492;13.434;2022-11-12T06:53:19;6.05;;;4.35;;
43337;SDS011;28933;52.492;13.434;2022-11-12T06:55:46;6.97;;;4.78;;
43337;SDS011;28933;52.492;13.434;2022-11-12T06:58:12;10.15;;;4.78;;
43337;SDS011;28933;52.492;13.434;2022-11-12T07:00:37;9.60;;;5.18;;
43337;SDS011;28933;52.492;13.434;2022-11-12T07:03:06;8.65;;;5.13;;
43337;SDS011;28933;52.492;13.434;2022-11-12T07:05:36;7.20;;;4.72;;
43337;SDS011;28933;52.492;13.434;2022-11-12T07:08:03;7.03;;;4.20;;
43337;SDS011;28933;52.492;13.434;2022-11-12T07:10:29;7.53;;;4.82;;
43337;SDS011;28933;52.492;13.434;2022-11-12T07:12:55;8.10;;;4.95;;
43337;SDS011;28933;52.492;13.434;2022-11-12T07:15:21;9.80;;;4.72;;
43337;SDS011;28933;52.492;13.434;2022-11-12T07:17:47;7.07;;;4.22;;
43337;SDS011;28933;52.492;13.434;2022-11-12T07:20:13;8.13;;;4.32;;
43337;SDS011;28933;52.492;13.434;2022-11-12T07:22:38;6.63;;;5.00;;
43337;SDS011;28933;52.492;13.434;2022-11-12T07:25:05;8.68;;;4.53;;
43337;SDS011;28933;52.492;13.434;2022-11-12T07:27:32;7.07;;;4.63;;
43337;SDS011;28933;52.492;13.434;2022-11-12T07:29:57;6.38;;;4.53;;
43337;SDS011;28933;52.492;13.434;2022-11-12T07:32:24;7.72;;;4.90;;
43337;SDS011;28933;52.492;13.434;2022-11-12T07:34:50;8.02;;;5.20;;
43337;SDS011;28933;52.492;13.434;2022-11-12T07:37:16;17.52;;;5.93;;
43337;SDS011;28933;52.492;13.434;2022-11-12T07:39:41;9.60;;;5.70;;
43337;SDS011;28933;52.492;13.434;2022-11-12T07:42:07;9.68;;;5.72;;
43337;SDS011;28933;52.492;13.434;2022-11-12T07:44:33;7.97;;;5.45;;
43337;SDS011;28933;52.492;13.434;2022-11-12T07:46:58;12.30;;;5.45;;
43337;SDS011;28933;52.492;13.434;2022-11-12T07:49:24;9.27;;;5.03;;
43337;SDS011;28933;52.492;13.434;2022-11-12T07:51:49;7.82;;;5.20;;
43337;SDS011;28933;52.492;13.434;2022-11-12T07:54:15;8.13;;;6.15;;
43337;SDS011;28933;52.492;13.434;2022-11-12T07:56:40;7.63;;;4.72;;
43337;SDS011;28933;52.492;13.434;2022-11-12T07:59:07;9.73;;;5.47;;
43337;SDS011;28933;52.492;13.434;2022-11-12T08:01:35;8.10;;;4.57;;
43337;SDS011;28933;52.492;13.434;2022-11-12T08:04:03;6.55;;;4.72;;
43337;SDS011;28933;52.492;13.434;2022-11-12T08:06:31;8.48;;;5.40;;
43337;SDS011;28933;52.492;13.434;2022-11-12T08:08:59;8.63;;;5.40;;
43337;SDS011;28933;52.492;13.434;2022-11-12T08:11:26;8.65;;;5.53;;
43337;SDS011;28933;52.492;13.434;2022-11-12T08:13:52;9.85;;;5.57;;
43337;SDS011;28933;52.492;13.434;2022-11-12T08:16:18;12.57;;;6.20;;
43337;SDS011;28933;52.492;13.434;2022-11-12T08:18:44;8.05;;;4.90;;
43337;SDS011;28933;52.492;13.434;2022-11-12T08:21:11;12.10;;;5.75;;
43337;SDS011;28933;52.492;13.434;2022-11-12T08:23:38;7.20;;;5.40;;
43337;SDS011;28933;52.492;13.434;2022-11-12T08:26:04;10.27;;;6.35;;
43337;SDS011;28933;52.492;13.434;2022-11-12T08:28:32;9.23;;;5.43;;
43337;SDS011;28933;52.492;13.434;2022-11-12T08:31:03;12.00;;;5.88;;
43337;SDS011;28933;52.492;13.434;2022-11-12T08:33:43;7.85;;;4.88;;
43337;SDS011;28933;52.492;13.434;2022-11-12T08:36:10;9.25;;;5.90;;
43337;SDS011;28933;52.492;13.434;2022-11-12T08:38:37;7.85;;;5.72;;
43337;SDS011;28933;52.492;13.434;2022-11-12T08:41:05;7.97;;;5.60;;
43337;SDS011;28933;52.492;13.434;2022-11-12T08:43:32;7.28;;;5.10;;
43337;SDS011;28933;52.492;13.434;2022-11-12T08:45:58;7.45;;;5.85;;
43337;SDS011;28933;52.492;13.434;2022-11-12T08:48:26;8.35;;;5.60;;
43337;SDS011;28933;52.492;13.434;2022-11-12T08:50:53;8.77;;;5.85;;
43337;SDS011;28933;52.492;13.434;2022-11-12T08:53:20;9.32;;;5.68;;
43337;SDS011;28933;52.492;13.434;2022-11-12T08:55:51;8.52;;;6.72;;
43337;SDS011;28933;52.492;13.434;2022-11-12T08:58:18;11.38;;;6.68;;
43337;SDS011;28933;52.492;13.434;2022-11-12T09:00:44;10.45;;;7.15;;
43337;SDS011;28933;52.492;13.434;2022-11-12T09:03:17;14.32;;;7.20;;
43337;SDS011;28933;52.492;13.434;2022-11-12T09:05:44;9.55;;;6.85;;
43337;SDS011;28933;52.492;13.434;2022-11-12T09:08:12;11.07;;;6.85;;
43337;SDS011;28933;52.492;13.434;2022-11-12T09:10:38;11.10;;;7.85;;
43337;SDS011;28933;52.492;13.434;2022-11-12T09:13:05;10.40;;;7.30;;
43337;SDS011;28933;52.492;13.434;2022-11-12T09:15:30;9.73;;;6.55;;
43337;SDS011;28933;52.492;13.434;2022-11-12T09:17:57;11.07;;;7.72;;
43337;SDS011;28933;52.492;13.434;2022-11-12T09:20:24;11.65;;;7.40;;
43337;SDS011;28933;52.492;13.434;2022-11-12T09:22:52;12.65;;;8.57;;
43337;SDS011;28933;52.492;13.434;2022-11-12T09:25:24;14.68;;;8.60;;
43337;SDS011;28933;52.492;13.434;2022-11-12T09:27:50;18.65;;;9.43;;
43337;SDS011;28933;52.492;13.434;2022-11-12T09:30:15;16.42;;;7.93;;
43337;SDS011;28933;52.492;13.434;2022-11-12T09:32:41;13.27;;;8.13;;
43337;SDS011;28933;52.492;13.434;2022-11-12T09:35:06;12.70;;;8.50;;
43337;SDS011;28933;52.492;13.434;2022-11-12T09:37:32;14.00;;;8.88;;
43337;SDS011;28933;52.492;13.434;2022-11-12T09:40:00;13.18;;;9.73;;
43337;SDS011;28933;52.492;13.434;2022-11-12T09:42:26;16.33;;;10.23;;
43337;SDS011;28933;52.492;13.434;2022-11-12T09:44:56;13.15;;;9.20;;
43337;SDS011;28933;52.492;13.434;2022-11-12T09:47:33;13.52;;;10.00;;
43337;SDS011;28933;52.492;13.434;2022-11-12T09:53:00;14.68;;;10.70;;
43337;SDS011;28933;52.492;13.434;2022-11-12T09:55:39;14.95;;;10.10;;
43337;SDS011;28933;52.492;13.434;2022-11-12T09:58:11;14.82;;;9.95;;
43337;SDS011;28933;52.492;13.434;2022-11-12T10:00:48;15.85;;;10.55;;
43337;SDS011;28933;52.492;13.434;2022-11-12T10:04:11;19.27;;;11.38;;
43337;SDS011;28933;52.492;13.434;2022-11-12T10:06:21;15.30;;;9.80;;
43337;SDS011;28933;52.492;13.434;2022-11-12T10:09:01;15.43;;;9.02;;
43337;SDS011;28933;52.492;13.434;2022-11-12T10:17:06;17.40;;;10.43;;
43337;SDS011;28933;52.492;13.434;2022-11-12T10:20:09;19.25;;;10.32;;
43337;SDS011;28933;52.492;13.434;2022-11-12T10:25:34;15.13;;;9.52;;
43337;SDS011;28933;52.492;13.434;2022-11-12T10:28:06;16.02;;;10.32;;
43337;SDS011;28933;52.492;13.434;2022-11-12T10:30:40;15.73;;;10.77;;
43337;SDS011;28933;52.492;13.434;2022-11-12T10:33:10;17.40;;;9.52;;
43337;SDS011;28933;52.492;13.434;2022-11-12T10:35:40;16.17;;;10.60;;
43337;SDS011;28933;52.492;13.434;2022-11-12T10:38:08;15.02;;;10.40;;
43337;SDS011;28933;52.492;13.434;2022-11-12T10:40:39;16.40;;;9.80;;
43337;SDS011;28933;52.492;13.434;2022-11-12T10:43:18;16.77;;;10.65;;
43337;SDS011;28933;52.492;13.434;2022-11-12T10:45:47;15.30;;;10.13;;
43337;SDS011;28933;52.492;13.434;2022-11-12T10:50:46;15.60;;;10.13;;
43337;SDS011;28933;52.492;13.434;2022-11-12T10:53:11;16.38;;;10.70;;
43337;SDS011;28933;52.492;13.434;2022-11-12T10:55:53;14.32;;;10.43;;
43337;SDS011;28933;52.492;13.434;2022-11-12T10:58:20;16.33;;;10.20;;
43337;SDS011;28933;52.492;13.434;2022-11-12T11:00:54;12.68;;;10.02;;
43337;SDS011;28933;52.492;13.434;2022-11-12T11:03:21;17.23;;;9.88;;
43337;SDS011;28933;52.492;13.434;2022-11-12T11:06:03;17.85;;;10.43;;
43337;SDS011;28933;52.492;13.434;2022-11-12T11:08:31;12.90;;;8.73;;
43337;SDS011;28933;52.492;13.434;2022-11-12T11:13:38;13.23;;;8.70;;
43337;SDS011;28933;52.492;13.434;2022-11-12T11:16:07;16.13;;;10.10;;
43337;SDS011;28933;52.492;13.434;2022-11-12T11:18:37;13.57;;;8.68;;
43337;SDS011;28933;52.492;13.434;2022-11-12T11:46:22;14.60;;;8.63;;
43337;SDS011;28933;52.492;13.434;2022-11-12T12:00:47;11.48;;;7.60;;
43337;SDS011;28933;52.492;13.434;2022-11-12T12:03:25;10.55;;;6.72;;
43337;SDS011;28933;52.492;13.434;2022-11-12T12:06:00;13.25;;;7.75;;
43337;SDS011;28933;52.492;13.434;2022-11-12T12:11:38;12.68;;;7.45;;
43337;SDS011;28933;52.492;13.434;2022-11-12T12:17:42;13.25;;;8.05;;
43337;SDS011;28933;52.492;13.434;2022-11-12T12:20:15;15.50;;;8.07;;
43337;SDS011;28933;52.492;13.434;2022-11-12T12:25:39;9.93;;;6.97;;
43337;SDS011;28933;52.492;13.434;2022-11-12T12:31:13;11.90;;;7.50;;
43337;SDS011;28933;52.492;13.434;2022-11-12T12:36:40;12.90;;;7.00;;
43337;SDS011;28933;52.492;13.434;2022-11-12T12:39:13;14.38;;;7.45;;
43337;SDS011;28933;52.492;13.434;2022-11-12T12:41:57;11.82;;;7.88;;
43337;SDS011;28933;52.492;13.434;2022-11-12T12:44:25;12.77;;;7.65;;
43337;SDS011;28933;52.492;13.434;2022-11-12T12:47:14;10.45;;;7.32;;
43337;SDS011;28933;52.492;13.434;2022-11-12T12:49:43;11.43;;;6.07;;
43337;SDS011;28933;52.492;13.434;2022-11-12T12:52:13;14.18;;;7.03;;
43337;SDS011;28933;52.492;13.434;2022-11-12T13:03:03;12.18;;;7.88;;
43337;SDS011;28933;52.492;13.434;2022-11-12T13:05:33;11.05;;;7.47;;
43337;SDS011;28933;52.492;13.434;2022-11-12T13:08:10;11.52;;;7.07;;
43337;SDS011;28933;52.492;13.434;2022-11-12T13:15:47;17.35;;;9.05;;
43337;SDS011;28933;52.492;13.434;2022-11-12T13:18:59;13.07;;;8.70;;
43337;SDS011;28933;52.492;13.434;2022-11-12T13:29:56;13.98;;;8.68;;
43337;SDS011;28933;52.492;13.434;2022-11-12T13:34:48;13.43;;;7.57;;
43337;SDS011;28933;52.492;13.434;2022-11-12T13:37:17;15.30;;;7.57;;
43337;SDS011;28933;52.492;13.434;2022-11-12T13:39:44;13.63;;;7.22;;
43337;SDS011;28933;52.492;13.434;2022-11-12T13:42:12;11.93;;;7.68;;
43337;SDS011;28933;52.492;13.434;2022-11-12T13:44:59;13.57;;;8.18;;
43337;SDS011;28933;52.492;13.434;2022-11-12T13:47:26;12.32;;;8.43;;
43337;SDS011;28933;52.492;13.434;2022-11-12T13:49:54;11.45;;;7.70;;
43337;SDS011;28933;52.492;13.434;2022-11-12T13:52:24;10.68;;;7.38;;
43337;SDS011;28933;52.492;13.434;2022-11-12T13:57:38;11.55;;;7.40;;
43337;SDS011;28933;52.492;13.434;2022-11-12T14:02:47;9.63;;;6.85;;
43337;SDS011;28933;52.492;13.434;2022-11-12T14:05:23;12.30;;;6.90;;
43337;SDS011;28933;52.492;13.434;2022-11-12T14:16:22;16.35;;;7.15;;
43337;SDS011;28933;52.492;13.434;2022-11-12T14:24:50;11.05;;;6.50;;
43337;SDS011;28933;52.492;13.434;2022-11-12T14:32:47;12.43;;;7.75;;
43337;SDS011;28933;52.492;13.434;2022-11-12T14:35:32;12.88;;;7.38;;
43337;SDS011;28933;52.492;13.434;2022-11-12T14:38:02;14.20;;;7.65;;
43337;SDS011;28933;52.492;13.434;2022-11-12T14:40:48;11.40;;;6.03;;
43337;SDS011;28933;52.492;13.434;2022-11-12T14:43:30;10.65;;;6.18;;
43337;SDS011;28933;52.492;13.434;2022-11-12T14:46:18;9.48;;;5.63;;
43337;SDS011;28933;52.492;13.434;2022-11-12T14:48:51;13.23;;;7.05;;
43337;SDS011;28933;52.492;13.434;2022-11-12T14:51:28;11.07;;;6.32;;
43337;SDS011;28933;52.492;13.434;2022-11-12T14:54:01;8.70;;;5.55;;
43337;SDS011;28933;52.492;13.434;2022-11-12T14:56:34;11.55;;;7.68;;
43337;SDS011;28933;52.492;13.434;2022-11-12T14:59:04;10.65;;;7.03;;
43337;SDS011;28933;52.492;13.434;2022-11-12T15:01:32;13.60;;;9.05;;
43337;SDS011;28933;52.492;13.434;2022-11-12T15:04:03;17.40;;;10.90;;
43337;SDS011;28933;52.492;13.434;2022-11-12T15:06:35;11.15;;;7.95;;
43337;SDS011;28933;52.492;13.434;2022-11-12T15:09:00;12.38;;;8.20;;
43337;SDS011;28933;52.492;13.434;2022-11-12T15:11:31;15.98;;;8.70;;
43337;SDS011;28933;52.492;13.434;2022-11-12T15:14:21;13.50;;;9.93;;
43337;SDS011;28933;52.492;13.434;2022-11-12T15:16:48;12.23;;;9.70;;
43337;SDS011;28933;52.492;13.434;2022-11-12T15:19:17;19.10;;;12.05;;
43337;SDS011;28933;52.492;13.434;2022-11-12T15:21:59;15.27;;;9.88;;
43337;SDS011;28933;52.492;13.434;2022-11-12T15:24:30;13.73;;;8.53;;
43337;SDS011;28933;52.492;13.434;2022-11-12T15:26:59;12.98;;;8.27;;
43337;SDS011;28933;52.492;13.434;2022-11-12T15:29:30;14.38;;;9.38;;
43337;SDS011;28933;52.492;13.434;2022-11-12T15:32:02;13.88;;;9.35;;
43337;SDS011;28933;52.492;13.434;2022-11-12T15:37:04;14.70;;;10.57;;
43337;SDS011;28933;52.492;13.434;2022-11-12T15:39:43;15.27;;;10.13;;
43337;SDS011;28933;52.492;13.434;2022-11-12T15:44:50;19.85;;;11.48;;
43337;SDS011;28933;52.492;13.434;2022-11-12T15:47:28;14.43;;;10.18;;
43337;SDS011;28933;52.492;13.434;2022-11-12T15:49:55;14.90;;;10.25;;
43337;SDS011;28933;52.492;13.434;2022-11-12T15:52:25;16.40;;;10.38;;
43337;SDS011;28933;52.492;13.434;2022-11-12T15:54:50;14.88;;;9.90;;
43337;SDS011;28933;52.492;13.434;2022-11-12T15:57:17;15.30;;;10.48;;
43337;SDS011;28933;52.492;13.434;2022-11-12T15:59:49;16.35;;;11.00;;
43337;SDS011;28933;52.492;13.434;2022-11-12T16:02:21;20.63;;;10.85;;
43337;SDS011;28933;52.492;13.434;2022-11-12T16:04:48;16.42;;;10.55;;
43337;SDS011;28933;52.492;13.434;2022-11-12T16:07:14;18.10;;;12.10;;
43337;SDS011;28933;52.492;13.434;2022-11-12T16:09:40;18.25;;;13.38;;
43337;SDS011;28933;52.492;13.434;2022-11-12T16:12:07;17.90;;;13.05;;
43337;SDS011;28933;52.492;13.434;2022-11-12T16:14:36;22.70;;;15.45;;
43337;SDS011;28933;52.492;13.434;2022-11-12T16:17:02;22.30;;;14.50;;
43337;SDS011;28933;52.492;13.434;2022-11-12T16:19:28;22.20;;;15.07;;
43337;SDS011;28933;52.492;13.434;2022-11-12T16:21:59;22.10;;;16.17;;
43337;SDS011;28933;52.492;13.434;2022-11-12T16:24:26;30.77;;;15.98;;
43337;SDS011;28933;52.492;13.434;2022-11-12T16:26:52;19.77;;;15.38;;
43337;SDS011;28933;52.492;13.434;2022-11-12T16:29:18;22.77;;;15.65;;
43337;SDS011;28933;52.492;13.434;2022-11-12T16:31:43;22.02;;;15.70;;
43337;SDS011;28933;52.492;13.434;2022-11-12T16:34:09;22.27;;;15.13;;
43337;SDS011;28933;52.492;13.434;2022-11-12T16:36:36;26.30;;;15.55;;
43337;SDS011;28933;52.492;13.434;2022-11-12T16:39:02;22.08;;;16.05;;
43337;SDS011;28933;52.492;13.434;2022-11-12T16:41:28;26.48;;;17.08;;
43337;SDS011;28933;52.492;13.434;2022-11-12T16:43:53;22.40;;;16.15;;